sensor_id;sensor_type;location;lat;lon;timestamp;P1;durP1;ratioP1;P2;durP2;ratioP2
51048;SDS011;37084;55.228;36.450;2022-12-18T00:01:15;15.88;;;5.95;;
51048;SDS011;37084;55.228;36.450;2022-12-18T00:04:20;17.27;;;7.05;;
51048;SDS011;37084;55.228;36.450;2022-12-18T00:07:22;16.13;;;7.00;;
51048;SDS011;37084;55.228;36.450;2022-12-18T00:10:24;16.52;;;7.40;;
51048;SDS011;37084;55.228;36.450;2022-12-18T00:13:25;17.38;;;6.80;;
51048;SDS011;37084;55.228;36.450;2022-12-18T00:16:29;16.92;;;7.07;;
51048;SDS011;37084;55.228;36.450;2022-12-18T00:19:32;15.77;;;7.68;;
51048;SDS011;37084;55.228;36.450;2022-12-18T00:22:34;14.18;;;5.63;;
51048;SDS011;37084;55.228;36.450;2022-12-18T00:25:35;18.13;;;7.28;;
51048;SDS011;37084;55.228;36.450;2022-12-18T00:28:37;16.33;;;6.32;;
51048;SDS011;37084;55.228;36.450;2022-12-18T00:31:39;18.35;;;8.02;;
51048;SDS011;37084;55.228;36.450;2022-12-18T00:34:40;15.45;;;6.30;;
51048;SDS011;37084;55.228;36.450;2022-12-18T00:37:43;16.02;;;6.47;;
51048;SDS011;37084;55.228;36.450;2022-12-18T00:40:46;15.18;;;6.15;;
51048;SDS011;37084;55.228;36.450;2022-12-18T00:43:47;12.90;;;6.20;;
51048;SDS011;37084;55.228;36.450;2022-12-18T00:46:48;15.27;;;6.50;;
51048;SDS011;37084;55.228;36.450;2022-12-18T00:49:50;13.02;;;5.85;;
51048;SDS011;37084;55.228;36.450;2022-12-18T00:52:51;16.33;;;7.47;;
51048;SDS011;37084;55.228;36.450;2022-12-18T00:55:53;10.98;;;5.13;;
51048;SDS011;37084;55.228;36.450;2022-12-18T00:58:54;12.52;;;5.85;;
51048;SDS011;37084;55.228;36.450;2022-12-18T01:01:55;10.38;;;4.18;;
51048;SDS011;37084;55.228;36.450;2022-12-18T01:04:56;14.57;;;5.95;;
51048;SDS011;37084;55.228;36.450;2022-12-18T01:07:58;11.32;;;6.63;;
51048;SDS011;37084;55.228;36.450;2022-12-18T01:10:59;13.20;;;5.57;;
51048;SDS011;37084;55.228;36.450;2022-12-18T01:14:01;12.13;;;5.90;;
51048;SDS011;37084;55.228;36.450;2022-12-18T01:17:03;11.57;;;4.88;;
51048;SDS011;37084;55.228;36.450;2022-12-18T01:20:07;11.73;;;5.53;;
51048;SDS011;37084;55.228;36.450;2022-12-18T01:23:09;12.13;;;5.88;;
51048;SDS011;37084;55.228;36.450;2022-12-18T01:26:12;13.07;;;6.43;;
51048;SDS011;37084;55.228;36.450;2022-12-18T01:29:15;11.80;;;6.22;;
51048;SDS011;37084;55.228;36.450;2022-12-18T01:32:16;10.98;;;4.55;;
51048;SDS011;37084;55.228;36.450;2022-12-18T01:35:17;10.75;;;3.50;;
51048;SDS011;37084;55.228;36.450;2022-12-18T01:38:20;8.60;;;4.28;;
51048;SDS011;37084;55.228;36.450;2022-12-18T01:41:23;12.85;;;5.60;;
51048;SDS011;37084;55.228;36.450;2022-12-18T01:48:05;9.98;;;4.85;;
51048;SDS011;37084;55.228;36.450;2022-12-18T01:51:08;13.70;;;6.95;;
51048;SDS011;37084;55.228;36.450;2022-12-18T01:54:10;8.88;;;4.13;;
51048;SDS011;37084;55.228;36.450;2022-12-18T01:57:12;9.38;;;4.47;;
51048;SDS011;37084;55.228;36.450;2022-12-18T02:00:15;10.43;;;4.30;;
51048;SDS011;37084;55.228;36.450;2022-12-18T02:03:18;8.60;;;3.38;;
51048;SDS011;37084;55.228;36.450;2022-12-18T02:06:26;9.38;;;4.75;;
51048;SDS011;37084;55.228;36.450;2022-12-18T02:09:34;10.00;;;4.72;;
51048;SDS011;37084;55.228;36.450;2022-12-18T02:16:03;6.45;;;3.33;;
51048;SDS011;37084;55.228;36.450;2022-12-18T02:19:16;8.75;;;4.30;;
51048;SDS011;37084;55.228;36.450;2022-12-18T02:26:14;5.13;;;2.90;;
51048;SDS011;37084;55.228;36.450;2022-12-18T02:29:27;6.53;;;2.80;;
51048;SDS011;37084;55.228;36.450;2022-12-18T02:32:33;5.93;;;2.83;;
51048;SDS011;37084;55.228;36.450;2022-12-18T02:35:38;7.75;;;3.95;;
51048;SDS011;37084;55.228;36.450;2022-12-18T02:38:42;11.88;;;5.28;;
51048;SDS011;37084;55.228;36.450;2022-12-18T02:41:47;8.68;;;4.57;;
51048;SDS011;37084;55.228;36.450;2022-12-18T02:44:50;5.22;;;3.40;;
51048;SDS011;37084;55.228;36.450;2022-12-18T02:47:57;6.53;;;3.90;;
51048;SDS011;37084;55.228;36.450;2022-12-18T02:54:10;6.50;;;3.20;;
51048;SDS011;37084;55.228;36.450;2022-12-18T02:57:40;6.15;;;2.85;;
51048;SDS011;37084;55.228;36.450;2022-12-18T03:00:50;6.95;;;3.88;;
51048;SDS011;37084;55.228;36.450;2022-12-18T03:03:59;5.18;;;2.85;;
51048;SDS011;37084;55.228;36.450;2022-12-18T03:07:07;3.30;;;2.42;;
51048;SDS011;37084;55.228;36.450;2022-12-18T03:10:13;6.78;;;3.40;;
51048;SDS011;37084;55.228;36.450;2022-12-18T03:14:00;5.00;;;3.08;;
51048;SDS011;37084;55.228;36.450;2022-12-18T03:16:49;7.05;;;3.35;;
51048;SDS011;37084;55.228;36.450;2022-12-18T03:19:54;5.40;;;3.05;;
51048;SDS011;37084;55.228;36.450;2022-12-18T03:22:59;2.53;;;2.30;;
51048;SDS011;37084;55.228;36.450;2022-12-18T03:26:06;3.92;;;3.00;;
51048;SDS011;37084;55.228;36.450;2022-12-18T03:29:22;6.43;;;2.78;;
51048;SDS011;37084;55.228;36.450;2022-12-18T03:32:30;4.68;;;2.92;;
51048;SDS011;37084;55.228;36.450;2022-12-18T03:35:42;3.88;;;2.92;;
51048;SDS011;37084;55.228;36.450;2022-12-18T03:38:45;4.18;;;2.58;;
51048;SDS011;37084;55.228;36.450;2022-12-18T03:41:55;8.70;;;2.95;;
51048;SDS011;37084;55.228;36.450;2022-12-18T03:48:32;5.30;;;2.58;;
51048;SDS011;37084;55.228;36.450;2022-12-18T03:52:26;3.45;;;2.28;;
51048;SDS011;37084;55.228;36.450;2022-12-18T03:55:14;4.47;;;2.40;;
51048;SDS011;37084;55.228;36.450;2022-12-18T03:58:20;4.00;;;2.28;;
51048;SDS011;37084;55.228;36.450;2022-12-18T04:01:32;6.55;;;2.90;;
51048;SDS011;37084;55.228;36.450;2022-12-18T04:04:36;5.68;;;2.92;;
51048;SDS011;37084;55.228;36.450;2022-12-18T04:07:39;5.93;;;3.03;;
51048;SDS011;37084;55.228;36.450;2022-12-18T04:10:43;2.50;;;1.63;;
51048;SDS011;37084;55.228;36.450;2022-12-18T04:13:46;2.40;;;2.13;;
51048;SDS011;37084;55.228;36.450;2022-12-18T04:16:53;4.43;;;2.17;;
51048;SDS011;37084;55.228;36.450;2022-12-18T04:20:00;2.60;;;1.92;;
51048;SDS011;37084;55.228;36.450;2022-12-18T04:23:04;5.28;;;3.00;;
51048;SDS011;37084;55.228;36.450;2022-12-18T04:26:05;4.60;;;2.67;;
51048;SDS011;37084;55.228;36.450;2022-12-18T04:29:21;4.72;;;2.55;;
51048;SDS011;37084;55.228;36.450;2022-12-18T04:32:22;7.13;;;3.22;;
51048;SDS011;37084;55.228;36.450;2022-12-18T04:35:24;3.92;;;3.13;;
51048;SDS011;37084;55.228;36.450;2022-12-18T04:38:26;1.77;;;1.55;;
51048;SDS011;37084;55.228;36.450;2022-12-18T04:41:36;4.03;;;2.72;;
51048;SDS011;37084;55.228;36.450;2022-12-18T04:44:38;3.95;;;2.22;;
51048;SDS011;37084;55.228;36.450;2022-12-18T04:47:39;2.00;;;1.85;;
51048;SDS011;37084;55.228;36.450;2022-12-18T04:50:40;5.03;;;3.35;;
51048;SDS011;37084;55.228;36.450;2022-12-18T04:53:42;2.30;;;1.70;;
51048;SDS011;37084;55.228;36.450;2022-12-18T04:56:43;2.42;;;2.25;;
51048;SDS011;37084;55.228;36.450;2022-12-18T04:59:44;4.68;;;2.50;;
51048;SDS011;37084;55.228;36.450;2022-12-18T05:02:45;5.22;;;3.05;;
51048;SDS011;37084;55.228;36.450;2022-12-18T05:05:49;5.03;;;3.17;;
51048;SDS011;37084;55.228;36.450;2022-12-18T05:08:51;3.75;;;2.22;;
51048;SDS011;37084;55.228;36.450;2022-12-18T05:11:52;4.50;;;2.55;;
51048;SDS011;37084;55.228;36.450;2022-12-18T05:14:54;7.30;;;3.00;;
51048;SDS011;37084;55.228;36.450;2022-12-18T05:17:56;3.67;;;2.22;;
51048;SDS011;37084;55.228;36.450;2022-12-18T05:20:57;3.72;;;2.30;;
51048;SDS011;37084;55.228;36.450;2022-12-18T05:23:59;4.95;;;2.35;;
51048;SDS011;37084;55.228;36.450;2022-12-18T05:27:00;3.85;;;2.30;;
51048;SDS011;37084;55.228;36.450;2022-12-18T05:30:02;2.70;;;2.40;;
51048;SDS011;37084;55.228;36.450;2022-12-18T05:33:04;5.57;;;2.85;;
51048;SDS011;37084;55.228;36.450;2022-12-18T05:36:06;2.55;;;2.05;;
51048;SDS011;37084;55.228;36.450;2022-12-18T05:39:08;3.13;;;2.58;;
51048;SDS011;37084;55.228;36.450;2022-12-18T05:42:10;1.92;;;1.63;;
51048;SDS011;37084;55.228;36.450;2022-12-18T05:45:11;4.25;;;2.47;;
51048;SDS011;37084;55.228;36.450;2022-12-18T05:48:12;3.70;;;1.95;;
51048;SDS011;37084;55.228;36.450;2022-12-18T05:51:15;3.15;;;2.33;;
51048;SDS011;37084;55.228;36.450;2022-12-18T05:54:17;3.55;;;2.92;;
51048;SDS011;37084;55.228;36.450;2022-12-18T05:57:18;2.40;;;2.20;;
51048;SDS011;37084;55.228;36.450;2022-12-18T06:00:19;2.90;;;2.28;;
51048;SDS011;37084;55.228;36.450;2022-12-18T06:03:22;3.80;;;2.25;;
51048;SDS011;37084;55.228;36.450;2022-12-18T06:06:24;3.97;;;3.00;;
51048;SDS011;37084;55.228;36.450;2022-12-18T06:09:26;4.55;;;2.83;;
51048;SDS011;37084;55.228;36.450;2022-12-18T06:12:28;4.53;;;2.70;;
51048;SDS011;37084;55.228;36.450;2022-12-18T06:15:29;3.40;;;2.05;;
51048;SDS011;37084;55.228;36.450;2022-12-18T06:18:30;3.22;;;2.28;;
51048;SDS011;37084;55.228;36.450;2022-12-18T06:21:31;4.47;;;3.42;;
51048;SDS011;37084;55.228;36.450;2022-12-18T06:24:32;1.70;;;1.60;;
51048;SDS011;37084;55.228;36.450;2022-12-18T06:27:34;4.38;;;3.55;;
51048;SDS011;37084;55.228;36.450;2022-12-18T06:30:35;1.65;;;1.52;;
51048;SDS011;37084;55.228;36.450;2022-12-18T06:33:37;2.75;;;1.73;;
51048;SDS011;37084;55.228;36.450;2022-12-18T06:36:38;3.97;;;3.08;;
51048;SDS011;37084;55.228;36.450;2022-12-18T06:39:40;4.93;;;3.42;;
51048;SDS011;37084;55.228;36.450;2022-12-18T06:42:41;8.38;;;4.60;;
51048;SDS011;37084;55.228;36.450;2022-12-18T06:45:43;4.85;;;2.78;;
51048;SDS011;37084;55.228;36.450;2022-12-18T06:48:46;2.97;;;1.95;;
51048;SDS011;37084;55.228;36.450;2022-12-18T06:51:49;6.70;;;3.38;;
51048;SDS011;37084;55.228;36.450;2022-12-18T06:54:53;3.05;;;2.33;;
51048;SDS011;37084;55.228;36.450;2022-12-18T06:57:54;1.67;;;1.15;;
51048;SDS011;37084;55.228;36.450;2022-12-18T07:01:02;6.72;;;2.83;;
51048;SDS011;37084;55.228;36.450;2022-12-18T07:04:04;8.32;;;2.60;;
51048;SDS011;37084;55.228;36.450;2022-12-18T07:07:06;6.45;;;3.45;;
51048;SDS011;37084;55.228;36.450;2022-12-18T07:10:07;1.65;;;1.55;;
51048;SDS011;37084;55.228;36.450;2022-12-18T07:13:08;2.88;;;2.53;;
51048;SDS011;37084;55.228;36.450;2022-12-18T07:16:17;2.03;;;1.90;;
51048;SDS011;37084;55.228;36.450;2022-12-18T07:19:19;4.97;;;2.47;;
51048;SDS011;37084;55.228;36.450;2022-12-18T07:22:21;1.85;;;1.40;;
51048;SDS011;37084;55.228;36.450;2022-12-18T07:25:22;2.97;;;1.73;;
51048;SDS011;37084;55.228;36.450;2022-12-18T07:28:23;3.03;;;1.92;;
51048;SDS011;37084;55.228;36.450;2022-12-18T07:31:25;3.95;;;2.65;;
51048;SDS011;37084;55.228;36.450;2022-12-18T07:34:26;4.35;;;2.38;;
51048;SDS011;37084;55.228;36.450;2022-12-18T07:37:28;9.55;;;3.65;;
51048;SDS011;37084;55.228;36.450;2022-12-18T07:40:29;5.40;;;3.28;;
51048;SDS011;37084;55.228;36.450;2022-12-18T07:43:30;3.35;;;2.42;;
51048;SDS011;37084;55.228;36.450;2022-12-18T07:46:32;4.72;;;2.40;;
51048;SDS011;37084;55.228;36.450;2022-12-18T07:49:33;5.15;;;3.28;;
51048;SDS011;37084;55.228;36.450;2022-12-18T07:52:34;4.72;;;2.28;;
51048;SDS011;37084;55.228;36.450;2022-12-18T07:55:35;3.15;;;1.80;;
51048;SDS011;37084;55.228;36.450;2022-12-18T07:58:37;5.38;;;3.05;;
51048;SDS011;37084;55.228;36.450;2022-12-18T08:01:39;6.47;;;3.75;;
51048;SDS011;37084;55.228;36.450;2022-12-18T08:04:40;5.63;;;3.58;;
51048;SDS011;37084;55.228;36.450;2022-12-18T08:07:41;3.47;;;1.83;;
51048;SDS011;37084;55.228;36.450;2022-12-18T08:10:42;4.13;;;2.10;;
51048;SDS011;37084;55.228;36.450;2022-12-18T08:13:43;6.85;;;4.18;;
51048;SDS011;37084;55.228;36.450;2022-12-18T08:16:45;2.25;;;1.70;;
51048;SDS011;37084;55.228;36.450;2022-12-18T08:19:46;5.85;;;3.25;;
51048;SDS011;37084;55.228;36.450;2022-12-18T08:22:47;2.80;;;1.77;;
51048;SDS011;37084;55.228;36.450;2022-12-18T08:25:48;5.30;;;2.80;;
51048;SDS011;37084;55.228;36.450;2022-12-18T08:28:50;3.20;;;2.03;;
51048;SDS011;37084;55.228;36.450;2022-12-18T08:31:52;7.13;;;3.58;;
51048;SDS011;37084;55.228;36.450;2022-12-18T08:34:53;2.33;;;1.77;;
51048;SDS011;37084;55.228;36.450;2022-12-18T08:37:54;5.03;;;3.47;;
51048;SDS011;37084;55.228;36.450;2022-12-18T08:40:59;6.05;;;3.30;;
51048;SDS011;37084;55.228;36.450;2022-12-18T08:44:04;2.70;;;2.25;;
51048;SDS011;37084;55.228;36.450;2022-12-18T08:47:24;4.10;;;2.05;;
51048;SDS011;37084;55.228;36.450;2022-12-18T08:50:26;5.75;;;2.80;;
51048;SDS011;37084;55.228;36.450;2022-12-18T08:53:27;5.35;;;3.05;;
51048;SDS011;37084;55.228;36.450;2022-12-18T08:56:29;3.78;;;2.55;;
51048;SDS011;37084;55.228;36.450;2022-12-18T08:59:30;2.80;;;2.60;;
51048;SDS011;37084;55.228;36.450;2022-12-18T09:02:32;2.65;;;2.25;;
51048;SDS011;37084;55.228;36.450;2022-12-18T09:05:33;4.35;;;2.70;;
51048;SDS011;37084;55.228;36.450;2022-12-18T09:08:34;2.95;;;1.90;;
51048;SDS011;37084;55.228;36.450;2022-12-18T09:11:36;4.45;;;3.85;;
51048;SDS011;37084;55.228;36.450;2022-12-18T09:14:38;5.68;;;3.70;;
51048;SDS011;37084;55.228;36.450;2022-12-18T09:17:39;4.78;;;3.20;;
51048;SDS011;37084;55.228;36.450;2022-12-18T09:20:41;2.28;;;1.95;;
51048;SDS011;37084;55.228;36.450;2022-12-18T09:23:42;6.95;;;3.30;;
51048;SDS011;37084;55.228;36.450;2022-12-18T09:26:44;4.95;;;2.58;;
51048;SDS011;37084;55.228;36.450;2022-12-18T09:29:45;4.97;;;2.38;;
51048;SDS011;37084;55.228;36.450;2022-12-18T09:32:47;2.55;;;2.00;;
51048;SDS011;37084;55.228;36.450;2022-12-18T09:35:48;1.05;;;1.05;;
51048;SDS011;37084;55.228;36.450;2022-12-18T09:38:50;3.67;;;2.05;;
51048;SDS011;37084;55.228;36.450;2022-12-18T09:41:52;2.95;;;2.15;;
51048;SDS011;37084;55.228;36.450;2022-12-18T09:44:54;3.45;;;2.35;;
51048;SDS011;37084;55.228;36.450;2022-12-18T09:47:55;5.55;;;2.78;;
51048;SDS011;37084;55.228;36.450;2022-12-18T09:50:59;2.35;;;1.70;;
51048;SDS011;37084;55.228;36.450;2022-12-18T09:54:04;3.83;;;1.92;;
51048;SDS011;37084;55.228;36.450;2022-12-18T09:57:13;2.67;;;2.00;;
51048;SDS011;37084;55.228;36.450;2022-12-18T10:00:19;2.58;;;2.22;;
51048;SDS011;37084;55.228;36.450;2022-12-18T10:03:23;1.17;;;1.08;;
51048;SDS011;37084;55.228;36.450;2022-12-18T10:13:23;5.93;;;2.95;;
51048;SDS011;37084;55.228;36.450;2022-12-18T10:26:37;4.07;;;2.25;;
51048;SDS011;37084;55.228;36.450;2022-12-18T10:29:38;4.25;;;1.80;;
51048;SDS011;37084;55.228;36.450;2022-12-18T10:32:39;1.17;;;1.17;;
51048;SDS011;37084;55.228;36.450;2022-12-18T10:35:41;3.85;;;2.47;;
51048;SDS011;37084;55.228;36.450;2022-12-18T10:38:43;2.65;;;1.77;;
51048;SDS011;37084;55.228;36.450;2022-12-18T10:41:44;1.92;;;1.58;;
51048;SDS011;37084;55.228;36.450;2022-12-18T10:44:45;4.50;;;1.80;;
51048;SDS011;37084;55.228;36.450;2022-12-18T10:47:47;3.75;;;2.00;;
51048;SDS011;37084;55.228;36.450;2022-12-18T10:50:50;3.55;;;1.80;;
51048;SDS011;37084;55.228;36.450;2022-12-18T10:54:02;4.50;;;2.38;;
51048;SDS011;37084;55.228;36.450;2022-12-18T11:00:29;1.45;;;1.20;;
51048;SDS011;37084;55.228;36.450;2022-12-18T11:03:32;1.35;;;1.25;;
51048;SDS011;37084;55.228;36.450;2022-12-18T11:06:52;9.55;;;2.88;;
51048;SDS011;37084;55.228;36.450;2022-12-18T11:10:00;1.95;;;1.58;;
51048;SDS011;37084;55.228;36.450;2022-12-18T11:13:23;2.38;;;1.75;;
51048;SDS011;37084;55.228;36.450;2022-12-18T11:16:26;3.63;;;2.35;;
51048;SDS011;37084;55.228;36.450;2022-12-18T11:19:38;4.45;;;2.00;;
51048;SDS011;37084;55.228;36.450;2022-12-18T11:22:40;2.88;;;1.73;;
51048;SDS011;37084;55.228;36.450;2022-12-18T11:25:41;4.47;;;1.83;;
51048;SDS011;37084;55.228;36.450;2022-12-18T11:28:54;2.80;;;2.60;;
51048;SDS011;37084;55.228;36.450;2022-12-18T11:38:53;6.97;;;2.63;;
51048;SDS011;37084;55.228;36.450;2022-12-18T11:42:02;3.15;;;2.08;;
51048;SDS011;37084;55.228;36.450;2022-12-18T11:48:18;4.85;;;2.95;;
51048;SDS011;37084;55.228;36.450;2022-12-18T11:51:33;6.85;;;3.17;;
51048;SDS011;37084;55.228;36.450;2022-12-18T11:54:37;4.53;;;2.63;;
51048;SDS011;37084;55.228;36.450;2022-12-18T12:00:54;8.27;;;3.50;;
51048;SDS011;37084;55.228;36.450;2022-12-18T12:07:47;9.00;;;3.05;;
51048;SDS011;37084;55.228;36.450;2022-12-18T12:11:02;7.55;;;3.13;;
51048;SDS011;37084;55.228;36.450;2022-12-18T12:24:22;11.73;;;4.38;;
51048;SDS011;37084;55.228;36.450;2022-12-18T12:27:39;7.78;;;3.60;;
51048;SDS011;37084;55.228;36.450;2022-12-18T12:31:00;2.75;;;2.53;;
51048;SDS011;37084;55.228;36.450;2022-12-18T12:37:19;2.95;;;1.17;;
51048;SDS011;37084;55.228;36.450;2022-12-18T12:41:21;7.57;;;3.22;;
51048;SDS011;37084;55.228;36.450;2022-12-18T12:44:47;6.07;;;3.25;;
51048;SDS011;37084;55.228;36.450;2022-12-18T12:47:52;11.77;;;4.05;;
51048;SDS011;37084;55.228;36.450;2022-12-18T12:50:55;6.47;;;4.07;;
51048;SDS011;37084;55.228;36.450;2022-12-18T12:53:57;8.98;;;3.47;;
51048;SDS011;37084;55.228;36.450;2022-12-18T12:57:05;8.68;;;3.90;;
51048;SDS011;37084;55.228;36.450;2022-12-18T13:00:13;5.25;;;2.50;;
51048;SDS011;37084;55.228;36.450;2022-12-18T13:03:24;6.72;;;3.05;;
51048;SDS011;37084;55.228;36.450;2022-12-18T13:06:50;4.00;;;2.15;;
51048;SDS011;37084;55.228;36.450;2022-12-18T13:13:27;6.53;;;2.20;;
51048;SDS011;37084;55.228;36.450;2022-12-18T13:20:17;3.65;;;1.88;;
51048;SDS011;37084;55.228;36.450;2022-12-18T13:23:19;5.60;;;3.10;;
51048;SDS011;37084;55.228;36.450;2022-12-18T13:29:43;4.72;;;2.40;;
51048;SDS011;37084;55.228;36.450;2022-12-18T13:32:45;7.90;;;3.47;;
51048;SDS011;37084;55.228;36.450;2022-12-18T13:39:08;4.03;;;2.03;;
51048;SDS011;37084;55.228;36.450;2022-12-18T13:45:40;3.50;;;1.95;;
51048;SDS011;37084;55.228;36.450;2022-12-18T13:48:48;4.10;;;1.95;;
51048;SDS011;37084;55.228;36.450;2022-12-18T13:51:52;3.40;;;2.42;;
51048;SDS011;37084;55.228;36.450;2022-12-18T13:54:55;3.10;;;1.55;;
51048;SDS011;37084;55.228;36.450;2022-12-18T13:58:04;3.90;;;1.80;;
51048;SDS011;37084;55.228;36.450;2022-12-18T14:01:15;2.83;;;1.52;;
51048;SDS011;37084;55.228;36.450;2022-12-18T14:04:25;2.58;;;1.63;;
51048;SDS011;37084;55.228;36.450;2022-12-18T14:07:28;2.00;;;1.27;;
51048;SDS011;37084;55.228;36.450;2022-12-18T14:10:31;2.10;;;1.40;;
51048;SDS011;37084;55.228;36.450;2022-12-18T14:13:36;3.55;;;2.33;;
51048;SDS011;37084;55.228;36.450;2022-12-18T14:19:47;1.77;;;1.60;;
51048;SDS011;37084;55.228;36.450;2022-12-18T14:22:50;2.60;;;1.90;;
51048;SDS011;37084;55.228;36.450;2022-12-18T14:25:51;2.00;;;1.83;;
51048;SDS011;37084;55.228;36.450;2022-12-18T14:28:52;2.83;;;1.77;;
51048;SDS011;37084;55.228;36.450;2022-12-18T14:32:11;1.38;;;1.05;;
51048;SDS011;37084;55.228;36.450;2022-12-18T14:35:14;1.67;;;1.45;;
51048;SDS011;37084;55.228;36.450;2022-12-18T14:41:18;1.80;;;1.27;;
51048;SDS011;37084;55.228;36.450;2022-12-18T14:44:20;1.58;;;1.48;;
51048;SDS011;37084;55.228;36.450;2022-12-18T14:47:24;3.00;;;1.33;;
51048;SDS011;37084;55.228;36.450;2022-12-18T14:50:26;2.60;;;1.70;;
51048;SDS011;37084;55.228;36.450;2022-12-18T14:53:51;2.80;;;1.95;;
51048;SDS011;37084;55.228;36.450;2022-12-18T15:00:05;7.40;;;2.20;;
51048;SDS011;37084;55.228;36.450;2022-12-18T15:03:07;1.02;;;1.02;;
51048;SDS011;37084;55.228;36.450;2022-12-18T15:06:17;2.70;;;1.42;;
51048;SDS011;37084;55.228;36.450;2022-12-18T15:09:23;4.38;;;1.83;;
51048;SDS011;37084;55.228;36.450;2022-12-18T15:12:33;2.05;;;1.73;;
51048;SDS011;37084;55.228;36.450;2022-12-18T15:15:45;1.67;;;1.45;;
51048;SDS011;37084;55.228;36.450;2022-12-18T15:18:47;2.97;;;2.17;;
51048;SDS011;37084;55.228;36.450;2022-12-18T15:21:48;2.30;;;1.65;;
51048;SDS011;37084;55.228;36.450;2022-12-18T15:24:50;5.03;;;1.80;;
51048;SDS011;37084;55.228;36.450;2022-12-18T15:27:51;1.80;;;1.52;;
51048;SDS011;37084;55.228;36.450;2022-12-18T15:30:59;2.78;;;1.75;;
51048;SDS011;37084;55.228;36.450;2022-12-18T15:34:16;2.17;;;1.92;;
51048;SDS011;37084;55.228;36.450;2022-12-18T15:37:22;4.45;;;2.08;;
51048;SDS011;37084;55.228;36.450;2022-12-18T15:40:24;6.32;;;2.63;;
51048;SDS011;37084;55.228;36.450;2022-12-18T15:43:25;4.88;;;2.42;;
51048;SDS011;37084;55.228;36.450;2022-12-18T15:46:37;2.40;;;2.17;;
51048;SDS011;37084;55.228;36.450;2022-12-18T15:49:38;1.35;;;1.25;;
51048;SDS011;37084;55.228;36.450;2022-12-18T15:52:41;7.65;;;4.47;;
51048;SDS011;37084;55.228;36.450;2022-12-18T15:55:44;5.25;;;2.83;;
51048;SDS011;37084;55.228;36.450;2022-12-18T15:59:10;2.88;;;1.75;;
51048;SDS011;37084;55.228;36.450;2022-12-18T16:02:14;7.88;;;3.35;;
51048;SDS011;37084;55.228;36.450;2022-12-18T16:05:18;2.80;;;2.45;;
51048;SDS011;37084;55.228;36.450;2022-12-18T16:08:20;6.85;;;2.38;;
51048;SDS011;37084;55.228;36.450;2022-12-18T16:11:26;3.63;;;2.53;;
51048;SDS011;37084;55.228;36.450;2022-12-18T16:14:41;5.72;;;2.20;;
51048;SDS011;37084;55.228;36.450;2022-12-18T16:17:42;5.80;;;2.17;;
51048;SDS011;37084;55.228;36.450;2022-12-18T16:20:44;9.15;;;2.85;;
51048;SDS011;37084;55.228;36.450;2022-12-18T16:23:46;4.88;;;1.73;;
51048;SDS011;37084;55.228;36.450;2022-12-18T16:26:47;4.28;;;1.65;;
51048;SDS011;37084;55.228;36.450;2022-12-18T16:29:51;6.43;;;2.55;;
51048;SDS011;37084;55.228;36.450;2022-12-18T16:32:55;3.97;;;2.13;;
51048;SDS011;37084;55.228;36.450;2022-12-18T16:35:56;2.25;;;2.05;;
51048;SDS011;37084;55.228;36.450;2022-12-18T16:38:57;15.90;;;3.70;;
51048;SDS011;37084;55.228;36.450;2022-12-18T16:41:58;3.55;;;2.80;;
51048;SDS011;37084;55.228;36.450;2022-12-18T16:45:00;4.95;;;2.22;;
51048;SDS011;37084;55.228;36.450;2022-12-18T16:48:04;1.88;;;1.70;;
51048;SDS011;37084;55.228;36.450;2022-12-18T16:51:05;2.13;;;1.38;;
51048;SDS011;37084;55.228;36.450;2022-12-18T16:54:06;5.28;;;2.30;;
51048;SDS011;37084;55.228;36.450;2022-12-18T16:57:09;3.97;;;2.47;;
51048;SDS011;37084;55.228;36.450;2022-12-18T17:00:13;3.67;;;2.35;;
51048;SDS011;37084;55.228;36.450;2022-12-18T17:03:14;2.80;;;1.75;;
51048;SDS011;37084;55.228;36.450;2022-12-18T17:06:16;1.40;;;1.30;;
51048;SDS011;37084;55.228;36.450;2022-12-18T17:09:17;3.05;;;2.58;;
51048;SDS011;37084;55.228;36.450;2022-12-18T17:12:25;2.22;;;1.48;;
51048;SDS011;37084;55.228;36.450;2022-12-18T17:15:26;4.15;;;2.22;;
51048;SDS011;37084;55.228;36.450;2022-12-18T17:18:28;6.70;;;3.55;;
51048;SDS011;37084;55.228;36.450;2022-12-18T17:21:29;6.00;;;2.75;;
51048;SDS011;37084;55.228;36.450;2022-12-18T17:24:31;2.05;;;1.25;;
51048;SDS011;37084;55.228;36.450;2022-12-18T17:27:33;2.40;;;2.20;;
51048;SDS011;37084;55.228;36.450;2022-12-18T17:30:34;8.27;;;2.45;;
51048;SDS011;37084;55.228;36.450;2022-12-18T17:33:35;2.65;;;2.00;;
51048;SDS011;37084;55.228;36.450;2022-12-18T17:36:37;2.70;;;2.03;;
51048;SDS011;37084;55.228;36.450;2022-12-18T17:39:39;3.92;;;2.40;;
51048;SDS011;37084;55.228;36.450;2022-12-18T17:42:41;2.85;;;1.58;;
51048;SDS011;37084;55.228;36.450;2022-12-18T17:45:42;1.38;;;1.27;;
51048;SDS011;37084;55.228;36.450;2022-12-18T17:48:44;3.58;;;2.33;;
51048;SDS011;37084;55.228;36.450;2022-12-18T17:51:45;1.50;;;1.40;;
51048;SDS011;37084;55.228;36.450;2022-12-18T17:54:46;3.15;;;1.73;;
51048;SDS011;37084;55.228;36.450;2022-12-18T17:57:48;1.95;;;1.73;;
51048;SDS011;37084;55.228;36.450;2022-12-18T18:00:49;2.35;;;1.90;;
51048;SDS011;37084;55.228;36.450;2022-12-18T18:03:51;1.58;;;1.38;;
51048;SDS011;37084;55.228;36.450;2022-12-18T18:06:54;1.98;;;1.85;;
51048;SDS011;37084;55.228;36.450;2022-12-18T18:09:55;3.25;;;2.53;;
51048;SDS011;37084;55.228;36.450;2022-12-18T18:12:56;2.13;;;1.92;;
51048;SDS011;37084;55.228;36.450;2022-12-18T18:16:16;0.82;;;0.82;;
51048;SDS011;37084;55.228;36.450;2022-12-18T18:19:19;2.13;;;2.05;;
51048;SDS011;37084;55.228;36.450;2022-12-18T18:22:21;1.50;;;1.48;;
51048;SDS011;37084;55.228;36.450;2022-12-18T18:25:23;3.75;;;2.10;;
51048;SDS011;37084;55.228;36.450;2022-12-18T18:28:24;1.15;;;1.08;;
51048;SDS011;37084;55.228;36.450;2022-12-18T18:31:27;1.38;;;1.27;;
51048;SDS011;37084;55.228;36.450;2022-12-18T18:34:30;0.75;;;0.75;;
51048;SDS011;37084;55.228;36.450;2022-12-18T18:37:33;1.25;;;1.23;;
51048;SDS011;37084;55.228;36.450;2022-12-18T18:40:35;1.88;;;1.42;;
51048;SDS011;37084;55.228;36.450;2022-12-18T18:43:36;0.98;;;0.98;;
51048;SDS011;37084;55.228;36.450;2022-12-18T18:46:37;1.70;;;1.17;;
51048;SDS011;37084;55.228;36.450;2022-12-18T18:49:39;2.67;;;1.98;;
51048;SDS011;37084;55.228;36.450;2022-12-18T18:52:40;1.90;;;1.75;;
51048;SDS011;37084;55.228;36.450;2022-12-18T18:55:41;0.82;;;0.82;;
51048;SDS011;37084;55.228;36.450;2022-12-18T18:58:42;6.50;;;2.92;;
51048;SDS011;37084;55.228;36.450;2022-12-18T19:01:44;1.40;;;1.33;;
51048;SDS011;37084;55.228;36.450;2022-12-18T19:04:45;1.90;;;1.50;;
51048;SDS011;37084;55.228;36.450;2022-12-18T19:07:46;0.95;;;0.95;;
51048;SDS011;37084;55.228;36.450;2022-12-18T19:10:49;0.93;;;0.93;;
51048;SDS011;37084;55.228;36.450;2022-12-18T19:13:52;1.65;;;1.55;;
51048;SDS011;37084;55.228;36.450;2022-12-18T19:16:53;1.63;;;1.02;;
51048;SDS011;37084;55.228;36.450;2022-12-18T19:19:54;1.95;;;1.50;;
51048;SDS011;37084;55.228;36.450;2022-12-18T19:22:55;2.15;;;1.60;;
51048;SDS011;37084;55.228;36.450;2022-12-18T19:26:00;0.88;;;0.85;;
51048;SDS011;37084;55.228;36.450;2022-12-18T19:29:02;1.70;;;1.40;;
51048;SDS011;37084;55.228;36.450;2022-12-18T19:32:05;1.50;;;1.40;;
51048;SDS011;37084;55.228;36.450;2022-12-18T19:35:06;1.42;;;1.33;;
51048;SDS011;37084;55.228;36.450;2022-12-18T19:38:07;1.52;;;1.42;;
51048;SDS011;37084;55.228;36.450;2022-12-18T19:41:08;1.67;;;1.67;;
51048;SDS011;37084;55.228;36.450;2022-12-18T19:44:10;0.60;;;0.60;;
51048;SDS011;37084;55.228;36.450;2022-12-18T19:47:13;1.55;;;1.50;;